Time,TemperatureF,DewpointF,PressureIn,WindDirection,WindDirectionDegrees,WindSpeedMPH,WindSpeedGustMPH,Humidity,HourlyPrecipIn,Conditions,Clouds,dailyrainin,SoftwareType,DateUTC
2013-05-28 00:02:00,45.0,20.0,29.69,WNW,291,0.0,-999.0,36,-99.99,,,-99.99,,2013-05-28 06:02:00,
2013-05-28 00:21:00,44.0,20.0,29.69,WNW,291,0.0,-999.0,38,-99.99,,,-99.99,,2013-05-28 06:21:00,
2013-05-28 00:31:00,44.0,19.0,29.68,WNW,291,0.0,-999.0,37,-99.99,,,-99.99,,2013-05-28 06:31:00,
2013-05-28 00:41:00,44.0,19.0,29.68,WNW,291,0.0,-999.0,37,-99.99,,,-99.99,,2013-05-28 06:41:00,
2013-05-28 00:51:00,44.0,19.0,29.68,WNW,291,0.0,-999.0,36,-99.99,,,-99.99,,2013-05-28 06:51:00,
2013-05-28 01:01:00,43.0,20.0,29.68,WNW,291,0.0,-999.0,40,-99.99,,,-99.99,,2013-05-28 07:01:00,
2013-05-28 01:21:00,43.0,20.0,29.68,WNW,291,0.0,-999.0,39,-99.99,,,-99.99,,2013-05-28 07:21:00,
2013-05-28 01:32:00,43.0,20.0,29.67,WNW,291,0.0,-999.0,39,-99.99,,,-99.99,,2013-05-28 07:32:00,
2013-05-28 01:42:00,43.0,20.0,29.67,WNW,291,0.0,-999.0,39,-99.99,,,-99.99,,2013-05-28 07:42:00,
2013-05-28 01:52:00,42.0,19.0,29.67,WNW,291,0.0,-999.0,40,-99.99,,,-99.99,,2013-05-28 07:52:00,
2013-05-28 02:01:00,41.0,19.0,29.67,WNW,291,0.0,-999.0,41,-99.99,,,-99.99,,2013-05-28 08:01:00,
2013-05-28 02:11:00,41.0,19.0,29.67,WNW,291,0.0,-999.0,41,-99.99,,,-99.99,,2013-05-28 08:11:00,
2013-05-28 02:21:00,41.0,19.0,29.67,WNW,291,0.0,-999.0,40,-99.99,,,-99.99,,2013-05-28 08:21:00,
2013-05-28 02:32:00,40.0,19.0,29.67,WNW,291,0.0,-999.0,42,-99.99,,,-99.99,,2013-05-28 08:32:00,
2013-05-28 02:41:00,40.0,19.0,29.67,WNW,291,0.0,-999.0,42,-99.99,,,-99.99,,2013-05-28 08:41:00,
2013-05-28 02:51:00,39.0,19.0,29.67,WNW,291,0.0,-999.0,44,-99.99,,,-99.99,,2013-05-28 08:51:00,
2013-05-28 03:01:00,39.0,19.0,29.66,WNW,291,0.0,-999.0,44,-99.99,,,-99.99,,2013-05-28 09:01:00,
2013-05-28 03:11:00,39.0,19.0,29.66,WNW,291,0.0,-999.0,44,-99.99,,,-99.99,,2013-05-28 09:11:00,
2013-05-28 03:21:00,38.0,19.0,29.66,WNW,291,0.0,-999.0,45,-99.99,,,-99.99,,2013-05-28 09:21:00,
2013-05-28 03:33:00,40.0,19.0,29.66,WNW,291,0.0,-999.0,43,-99.99,,,-99.99,,2013-05-28 09:33:00,
2013-05-28 03:42:00,40.0,19.0,29.66,WNW,291,0.0,-999.0,43,-99.99,,,-99.99,,2013-05-28 09:42:00,
2013-05-28 03:53:00,39.0,19.0,29.66,WNW,291,0.0,-999.0,45,-99.99,,,-99.99,,2013-05-28 09:53:00,
2013-05-28 04:02:00,39.0,19.0,29.66,WNW,291,0.0,-999.0,44,-99.99,,,-99.99,,2013-05-28 10:02:00,
2013-05-28 04:12:00,39.0,19.0,29.66,WNW,291,0.0,-999.0,44,-99.99,,,-99.99,,2013-05-28 10:12:00,
2013-05-28 04:22:00,38.0,19.0,29.66,WNW,291,0.0,-999.0,45,-99.99,,,-99.99,,2013-05-28 10:22:00,
2013-05-28 04:32:00,37.0,18.0,29.66,WNW,291,0.0,-999.0,46,-99.99,,,-99.99,,2013-05-28 10:32:00,
2013-05-28 04:42:00,37.0,18.0,29.66,WNW,291,0.0,-999.0,46,-99.99,,,-99.99,,2013-05-28 10:42:00,
2013-05-28 04:52:00,38.0,19.0,29.66,WNW,291,0.0,-999.0,46,-99.99,,,-99.99,,2013-05-28 10:52:00,
2013-05-28 05:02:00,38.0,19.0,29.65,WNW,291,0.0,-999.0,46,-99.99,,,-99.99,,2013-05-28 11:02:00,
2013-05-28 05:11:00,38.0,19.0,29.65,WNW,291,0.0,-999.0,46,-99.99,,,-99.99,,2013-05-28 11:11:00,
2013-05-28 05:22:00,38.0,19.0,29.65,WNW,291,0.0,-999.0,45,-99.99,,,-99.99,,2013-05-28 11:22:00,
2013-05-28 05:32:00,38.0,19.0,29.65,WNW,291,0.0,-999.0,45,-99.99,,,-99.99,,2013-05-28 11:32:00,
2013-05-28 05:41:00,38.0,19.0,29.65,WNW,291,0.0,-999.0,45,-99.99,,,-99.99,,2013-05-28 11:41:00,
2013-05-28 05:52:00,37.0,18.0,29.65,WNW,291,0.0,-999.0,46,-99.99,,,-99.99,,2013-05-28 11:52:00,
2013-05-28 06:01:00,37.0,19.0,29.65,WNW,291,0.0,-999.0,47,-99.99,,,-99.99,,2013-05-28 12:01:00,
2013-05-28 06:11:00,37.0,19.0,29.65,WNW,291,0.0,-999.0,47,-99.99,,,-99.99,,2013-05-28 12:11:00,
2013-05-28 06:21:00,36.0,18.0,29.65,WNW,291,0.0,-999.0,48,-99.99,,,-99.99,,2013-05-28 12:21:00,
2013-05-28 06:31:00,37.0,18.0,29.64,WNW,291,0.0,-999.0,46,-99.99,,,-99.99,,2013-05-28 12:31:00,
2013-05-28 06:42:00,37.0,18.0,29.64,WNW,291,0.0,-999.0,46,-99.99,,,-99.99,,2013-05-28 12:42:00,
2013-05-28 06:52:00,38.0,19.0,29.64,WNW,291,0.0,-999.0,45,-99.99,,,-99.99,,2013-05-28 12:52:00,
2013-05-28 07:01:00,38.0,19.0,29.64,WNW,291,0.0,-999.0,46,-99.99,,,-99.99,,2013-05-28 13:01:00,
2013-05-28 07:11:00,38.0,19.0,29.64,WNW,291,0.0,-999.0,46,-99.99,,,-99.99,,2013-05-28 13:11:00,
2013-05-28 07:21:00,39.0,20.0,29.65,WNW,291,0.0,-999.0,46,-99.99,,,-99.99,,2013-05-28 13:21:00,
2013-05-28 07:32:00,40.0,21.0,29.64,WNW,291,0.0,-999.0,46,-99.99,,,-99.99,,2013-05-28 13:32:00,
2013-05-28 07:42:00,40.0,21.0,29.64,WNW,291,0.0,-999.0,46,-99.99,,,-99.99,,2013-05-28 13:42:00,
2013-05-28 07:52:00,41.0,21.0,29.64,WNW,291,0.0,-999.0,45,-99.99,,,-99.99,,2013-05-28 13:52:00,
2013-05-28 08:01:00,42.0,21.0,29.64,WNW,291,0.0,-999.0,43,-99.99,,,-99.99,,2013-05-28 14:01:00,
2013-05-28 08:11:00,42.0,21.0,29.64,WNW,291,0.0,-999.0,43,-99.99,,,-99.99,,2013-05-28 14:11:00,
2013-05-28 08:32:00,45.0,24.0,29.63,WNW,291,0.0,-999.0,43,-99.99,,,-99.99,,2013-05-28 14:32:00,
2013-05-28 08:41:00,45.0,24.0,29.63,WNW,291,0.0,-999.0,43,-99.99,,,-99.99,,2013-05-28 14:41:00,
2013-05-28 08:51:00,47.0,25.0,29.63,WSW,257,0.0,-999.0,41,-99.99,,,-99.99,,2013-05-28 14:51:00,
2013-05-28 09:01:00,47.0,25.0,29.63,WSW,257,0.0,-999.0,41,-99.99,,,-99.99,,2013-05-28 15:01:00,
2013-05-28 09:32:00,53.0,23.0,29.62,WSW,257,0.0,-999.0,31,-99.99,,,-99.99,,2013-05-28 15:32:00,
2013-05-28 09:43:00,53.0,23.0,29.62,WSW,257,0.0,-999.0,31,-99.99,,,-99.99,,2013-05-28 15:43:00,
2013-05-28 09:52:00,55.0,24.0,29.61,South,184,1.0,-999.0,30,-99.99,,,-99.99,,2013-05-28 15:52:00,
2013-05-28 10:03:00,56.0,24.0,29.60,South,176,1.0,-999.0,29,-99.99,,,-99.99,,2013-05-28 16:03:00,
2013-05-28 10:12:00,56.0,24.0,29.60,South,176,1.0,-999.0,29,-99.99,,,-99.99,,2013-05-28 16:12:00,
2013-05-28 10:22:00,58.0,25.0,29.60,South,182,1.0,-999.0,28,-99.99,,,-99.99,,2013-05-28 16:22:00,
2013-05-28 10:33:00,59.0,27.0,29.59,WSW,257,2.0,-999.0,29,-99.99,,,-99.99,,2013-05-28 16:33:00,
2013-05-28 10:42:00,59.0,27.0,29.59,WSW,257,2.0,-999.0,29,-99.99,,,-99.99,,2013-05-28 16:42:00,
2013-05-28 10:52:00,60.0,25.0,29.58,South,176,1.0,-999.0,26,-99.99,,,-99.99,,2013-05-28 16:52:00,
2013-05-28 11:02:00,59.0,26.0,29.58,West,267,2.0,-999.0,28,-99.99,,,-99.99,,2013-05-28 17:02:00,
2013-05-28 11:11:00,59.0,26.0,29.58,West,267,2.0,-999.0,28,-99.99,,,-99.99,,2013-05-28 17:11:00,
2013-05-28 11:22:00,59.0,26.0,29.58,West,267,2.0,-999.0,28,-99.99,,,-99.99,,2013-05-28 17:22:00,
2013-05-28 11:32:00,61.0,27.0,29.59,West,264,4.0,-999.0,27,-99.99,,,-99.99,,2013-05-28 17:32:00,
2013-05-28 11:41:00,60.0,27.0,29.59,SSW,203,4.0,-999.0,28,-99.99,,,-99.99,,2013-05-28 17:41:00,
2013-05-28 11:52:00,60.0,27.0,29.59,SSW,203,4.0,-999.0,28,-99.99,,,-99.99,,2013-05-28 17:52:00,
2013-05-28 12:01:00,60.0,27.0,29.59,South,185,2.0,-999.0,28,-99.99,,,-99.99,,2013-05-28 18:01:00,
2013-05-28 12:11:00,60.0,27.0,29.59,South,185,2.0,-999.0,28,-99.99,,,-99.99,,2013-05-28 18:11:00,
2013-05-28 12:21:00,60.0,26.0,29.58,South,184,3.0,-999.0,27,-99.99,,,-99.99,,2013-05-28 18:21:00,
2013-05-28 12:32:00,61.0,29.0,29.58,SSE,157,1.0,-999.0,29,-99.99,,,-99.99,,2013-05-28 18:32:00,
2013-05-28 12:42:00,61.0,28.0,29.57,East,98,4.0,-999.0,28,-99.99,,,-99.99,,2013-05-28 18:42:00,
2013-05-28 12:52:00,61.0,28.0,29.57,East,98,4.0,-999.0,28,-99.99,,,-99.99,,2013-05-28 18:52:00,
2013-05-28 13:01:00,62.0,28.0,29.57,South,183,2.0,-999.0,27,-99.99,,,-99.99,,2013-05-28 19:01:00,
2013-05-28 13:11:00,62.0,28.0,29.57,South,183,2.0,-999.0,27,-99.99,,,-99.99,,2013-05-28 19:11:00,
2013-05-28 13:21:00,63.0,29.0,29.56,SW,219,3.0,-999.0,28,-99.99,,,-99.99,,2013-05-28 19:21:00,
2013-05-28 13:31:00,62.0,28.0,29.55,South,173,2.0,-999.0,27,-99.99,,,-99.99,,2013-05-28 19:31:00,
2013-05-28 13:41:00,62.0,28.0,29.55,South,173,2.0,-999.0,27,-99.99,,,-99.99,,2013-05-28 19:41:00,
2013-05-28 13:52:00,62.0,25.0,29.55,South,175,3.0,-999.0,24,-99.99,,,-99.99,,2013-05-28 19:52:00,
2013-05-28 14:01:00,62.0,27.0,29.55,ENE,72,4.0,-999.0,26,-99.99,,,-99.99,,2013-05-28 20:01:00,
2013-05-28 14:11:00,62.0,27.0,29.55,ENE,72,4.0,-999.0,26,-99.99,,,-99.99,,2013-05-28 20:11:00,
2013-05-28 14:22:00,62.0,27.0,29.55,WNW,296,3.0,-999.0,26,-99.99,,,-99.99,,2013-05-28 20:22:00,
2013-05-28 14:32:00,63.0,26.0,29.55,ENE,75,3.0,-999.0,24,-99.99,,,-99.99,,2013-05-28 20:32:00,
2013-05-28 14:42:00,63.0,26.0,29.55,ENE,75,3.0,-999.0,24,-99.99,,,-99.99,,2013-05-28 20:42:00,
2013-05-28 14:52:00,64.0,27.0,29.54,West,273,2.0,-999.0,25,-99.99,,,-99.99,,2013-05-28 20:52:00,
2013-05-28 15:01:00,62.0,26.0,29.53,South,175,3.0,-999.0,25,-99.99,,,-99.99,,2013-05-28 21:01:00,
2013-05-28 15:11:00,63.0,26.0,29.52,ESE,109,2.0,-999.0,24,-99.99,,,-99.99,,2013-05-28 21:11:00,
2013-05-28 15:21:00,63.0,26.0,29.52,ESE,109,2.0,-999.0,24,-99.99,,,-99.99,,2013-05-28 21:21:00,
2013-05-28 15:33:00,64.0,27.0,29.52,ESE,105,2.0,-999.0,25,-99.99,,,-99.99,,2013-05-28 21:33:00,
2013-05-28 15:43:00,63.0,27.0,29.51,South,186,2.0,-999.0,25,-99.99,,,-99.99,,2013-05-28 21:43:00,
2013-05-28 15:53:00,63.0,27.0,29.51,South,186,2.0,-999.0,25,-99.99,,,-99.99,,2013-05-28 21:53:00,
2013-05-28 16:02:00,62.0,25.0,29.51,West,269,3.0,-999.0,24,-99.99,,,-99.99,,2013-05-28 22:02:00,
2013-05-28 16:12:00,62.0,24.0,29.50,South,191,2.0,-999.0,23,-99.99,,,-99.99,,2013-05-28 22:12:00,
2013-05-28 16:22:00,62.0,24.0,29.50,South,191,2.0,-999.0,23,-99.99,,,-99.99,,2013-05-28 22:22:00,
2013-05-28 16:32:00,63.0,28.0,29.50,West,273,3.0,-999.0,26,-99.99,,,-99.99,,2013-05-28 22:32:00,
2013-05-28 16:42:00,62.0,26.0,29.49,WSW,255,5.0,-999.0,25,-99.99,,,-99.99,,2013-05-28 22:42:00,
2013-05-28 17:02:00,64.0,26.0,29.49,ESE,102,3.0,-999.0,24,-99.99,,,-99.99,,2013-05-28 23:02:00,
2013-05-28 17:11:00,63.0,27.0,29.49,West,265,4.0,-999.0,25,-99.99,,,-99.99,,2013-05-28 23:11:00,
2013-05-28 17:21:00,63.0,27.0,29.49,West,265,4.0,-999.0,25,-99.99,,,-99.99,,2013-05-28 23:21:00,
2013-05-28 17:32:00,62.0,25.0,29.49,South,179,3.0,-999.0,24,-99.99,,,-99.99,,2013-05-28 23:32:00,
2013-05-28 17:52:00,61.0,24.0,29.49,SSE,167,4.0,-999.0,24,-99.99,,,-99.99,,2013-05-28 23:52:00,
2013-05-28 18:02:00,61.0,25.0,29.48,SSE,163,2.0,-999.0,25,-99.99,,,-99.99,,2013-05-29 00:02:00,
2013-05-28 18:21:00,63.0,24.0,29.48,South,176,3.0,-999.0,22,-99.99,,,-99.99,,2013-05-29 00:21:00,
2013-05-28 18:32:00,63.0,24.0,29.48,South,178,3.0,-999.0,22,-99.99,,,-99.99,,2013-05-29 00:32:00,
2013-05-28 18:51:00,62.0,25.0,29.48,South,169,2.0,-999.0,24,-99.99,,,-99.99,,2013-05-29 00:51:00,
2013-05-28 19:01:00,61.0,24.0,29.48,South,188,1.0,-999.0,24,-99.99,,,-99.99,,2013-05-29 01:01:00,
2013-05-28 19:11:00,61.0,24.0,29.48,South,188,1.0,-999.0,24,-99.99,,,-99.99,,2013-05-29 01:11:00,
2013-05-28 19:21:00,61.0,25.0,29.48,South,170,2.0,-999.0,25,-99.99,,,-99.99,,2013-05-29 01:21:00,
2013-05-28 19:32:00,60.0,24.0,29.48,NNW,329,5.0,-999.0,25,-99.99,,,-99.99,,2013-05-29 01:32:00,
2013-05-28 19:41:00,60.0,24.0,29.48,NNW,329,5.0,-999.0,25,-99.99,,,-99.99,,2013-05-29 01:41:00,
2013-05-28 19:52:00,60.0,25.0,29.48,North,360,3.0,-999.0,26,-99.99,,,-99.99,,2013-05-29 01:52:00,
2013-05-28 20:02:00,59.0,25.0,29.48,West,259,0.0,-999.0,27,-99.99,,,-99.99,,2013-05-29 02:02:00,
2013-05-28 20:11:00,59.0,25.0,29.48,West,259,0.0,-999.0,27,-99.99,,,-99.99,,2013-05-29 02:11:00,
2013-05-28 20:31:00,55.0,23.0,29.48,North,355,0.0,-999.0,28,-99.99,,,-99.99,,2013-05-29 02:31:00,
2013-05-28 20:41:00,54.0,25.0,29.48,SW,236,0.0,-999.0,32,-99.99,,,-99.99,,2013-05-29 02:41:00,
2013-05-28 20:51:00,54.0,25.0,29.48,SW,236,0.0,-999.0,32,-99.99,,,-99.99,,2013-05-29 02:51:00,
2013-05-28 21:01:00,56.0,21.0,29.48,WNW,288,1.0,-999.0,25,-99.99,,,-99.99,,2013-05-29 03:01:00,
2013-05-28 21:11:00,56.0,21.0,29.48,WNW,288,1.0,-999.0,25,-99.99,,,-99.99,,2013-05-29 03:11:00,
2013-05-28 21:21:00,56.0,24.0,29.47,WSW,248,1.0,-999.0,29,-99.99,,,-99.99,,2013-05-29 03:21:00,
2013-05-28 21:33:00,52.0,22.0,29.47,WSW,248,0.0,-999.0,31,-99.99,,,-99.99,,2013-05-29 03:33:00,
2013-05-28 21:43:00,52.0,22.0,29.47,WSW,248,0.0,-999.0,31,-99.99,,,-99.99,,2013-05-29 03:43:00,
2013-05-28 21:53:00,50.0,22.0,29.47,WSW,248,0.0,-999.0,33,-99.99,,,-99.99,,2013-05-29 03:53:00,
2013-05-28 22:02:00,49.0,21.0,29.47,WSW,248,0.0,-999.0,33,-99.99,,,-99.99,,2013-05-29 04:02:00,
2013-05-28 22:12:00,48.0,22.0,29.47,WSW,248,0.0,-999.0,35,-99.99,,,-99.99,,2013-05-29 04:12:00,
2013-05-28 22:23:00,48.0,22.0,29.47,WSW,248,0.0,-999.0,35,-99.99,,,-99.99,,2013-05-29 04:23:00,
2013-05-28 22:33:00,47.0,21.0,29.47,WSW,248,0.0,-999.0,36,-99.99,,,-99.99,,2013-05-29 04:33:00,
2013-05-28 22:42:00,47.0,21.0,29.47,WSW,248,0.0,-999.0,36,-99.99,,,-99.99,,2013-05-29 04:42:00,
2013-05-28 22:52:00,47.0,21.0,29.47,WSW,248,0.0,-999.0,36,-99.99,,,-99.99,,2013-05-29 04:52:00,
2013-05-28 23:02:00,48.0,27.0,29.48,NW,323,0.0,-999.0,44,-99.99,,,-99.99,,2013-05-29 05:02:00,
2013-05-28 23:22:00,48.0,24.0,29.48,ENE,66,0.0,-999.0,39,-99.99,,,-99.99,,2013-05-29 05:22:00,
2013-05-28 23:32:00,47.0,26.0,29.48,NNE,24,0.0,-999.0,44,-99.99,,,-99.99,,2013-05-29 05:32:00,
2013-05-28 23:42:00,47.0,26.0,29.48,NNE,24,0.0,-999.0,44,-99.99,,,-99.99,,2013-05-29 05:42:00,
2013-05-28 23:52:00,50.0,27.0,29.49,SE,137,2.0,-999.0,41,-99.99,,,-99.99,,2013-05-29 05:52:00,